createdAt,value
2023-09-14T00:01:22.640Z,1.65
2023-09-14T00:03:52.579Z,2.00
2023-09-14T00:06:20.709Z,2.00
2023-09-14T00:08:48.657Z,1.95
2023-09-14T00:11:16.518Z,2.10
2023-09-14T00:13:44.380Z,2.30
2023-09-14T00:16:12.318Z,2.15
2023-09-14T00:18:41.594Z,1.85
2023-09-14T00:21:09.596Z,1.85
2023-09-14T00:23:37.568Z,2.10
2023-09-14T00:26:05.408Z,1.92
2023-09-14T00:28:33.254Z,1.80
2023-09-14T00:31:01.192Z,2.40
2023-09-14T00:33:29.199Z,2.53
2023-09-14T00:35:58.425Z,1.92
2023-09-14T00:38:26.455Z,2.22
2023-09-14T00:40:54.349Z,2.17
2023-09-14T00:43:22.201Z,2.10
2023-09-14T00:45:50.236Z,2.20
2023-09-14T00:48:18.878Z,2.20
2023-09-14T00:50:47.038Z,2.17
2023-09-14T00:53:18.079Z,2.23
2023-09-14T00:55:47.034Z,2.20
2023-09-14T00:58:17.222Z,2.22
2023-09-14T01:00:47.133Z,1.80
2023-09-14T01:03:15.625Z,2.15
2023-09-14T01:05:45.068Z,1.73
2023-09-14T01:08:13.024Z,2.28
2023-09-14T01:10:42.314Z,2.10
2023-09-14T01:13:14.270Z,2.13
2023-09-14T01:15:49.204Z,2.00
2023-09-14T01:18:22.550Z,2.10
2023-09-14T01:21:15.237Z,2.30
2023-09-14T01:23:51.313Z,2.15
2023-09-14T01:26:21.522Z,1.77
2023-09-14T01:28:50.082Z,2.20
2023-09-14T01:31:18.275Z,1.60
2023-09-14T01:33:49.842Z,1.95
2023-09-14T01:36:24.489Z,2.13
2023-09-14T01:38:54.636Z,2.45
2023-09-14T01:41:25.077Z,2.50
2023-09-14T01:43:55.494Z,2.60
2023-09-14T01:46:24.041Z,2.30
2023-09-14T01:48:52.777Z,2.50
2023-09-14T01:51:20.706Z,2.30
2023-09-14T01:53:48.633Z,1.98
2023-09-14T01:56:16.467Z,2.10
2023-09-14T01:58:46.004Z,2.00
2023-09-14T02:01:14.724Z,1.90
2023-09-14T02:03:42.724Z,2.17
2023-09-14T02:06:10.646Z,2.28
2023-09-14T02:08:38.676Z,1.90
2023-09-14T02:11:06.576Z,1.67
2023-09-14T02:13:35.911Z,1.80
2023-09-14T02:16:05.498Z,2.20
2023-09-14T02:18:33.498Z,2.05
2023-09-14T02:21:01.648Z,2.30
2023-09-14T02:23:29.583Z,2.00
2023-09-14T02:25:57.441Z,2.03
2023-09-14T02:28:25.318Z,2.00
2023-09-14T02:30:53.232Z,2.30
2023-09-14T02:33:22.603Z,2.05
2023-09-14T02:35:52.410Z,1.70
2023-09-14T02:38:20.662Z,1.80
2023-09-14T02:40:48.859Z,2.05
2023-09-14T02:43:16.944Z,2.30
2023-09-14T02:45:44.928Z,2.10
2023-09-14T02:48:14.393Z,2.30
2023-09-14T02:50:44.624Z,1.77
2023-09-14T02:53:12.737Z,2.50
2023-09-14T02:55:41.208Z,2.17
2023-09-14T02:58:10.086Z,2.13
2023-09-14T03:00:40.013Z,2.08
2023-09-14T03:03:11.072Z,2.45
2023-09-14T03:05:39.482Z,2.10
2023-09-14T03:08:08.852Z,2.13
2023-09-14T03:10:37.127Z,2.40
2023-09-14T03:13:05.405Z,2.20
2023-09-14T03:15:35.840Z,2.17
2023-09-14T03:18:04.535Z,2.10
2023-09-14T03:20:32.428Z,2.83
2023-09-14T03:23:01.962Z,2.35
2023-09-14T03:25:31.271Z,3.00
2023-09-14T03:30:27.060Z,2.38
2023-09-14T03:32:55.082Z,2.50
2023-09-14T03:35:23.119Z,2.15
2023-09-14T03:37:51.255Z,2.90
2023-09-14T03:40:20.313Z,3.30
2023-09-14T03:42:50.880Z,3.17
2023-09-14T03:45:18.806Z,3.35
2023-09-14T03:47:47.571Z,3.45
2023-09-14T03:50:15.435Z,3.40
2023-09-14T03:52:43.340Z,3.70
2023-09-14T03:55:11.655Z,3.05
2023-09-14T03:57:39.801Z,3.20
2023-09-14T04:00:11.848Z,2.47
2023-09-14T04:02:43.654Z,2.80
2023-09-14T04:07:41.180Z,2.15
2023-09-14T04:10:11.390Z,2.00
2023-09-14T04:12:40.189Z,2.92
2023-09-14T04:15:10.949Z,2.97
2023-09-14T04:17:39.530Z,3.92
2023-09-14T04:20:10.646Z,5.13
2023-09-14T04:22:40.161Z,4.35
2023-09-14T04:25:09.029Z,4.15
2023-09-14T04:27:38.021Z,4.13
2023-09-14T04:30:09.261Z,2.85
2023-09-14T04:32:38.654Z,3.63
2023-09-14T04:35:08.961Z,3.20
2023-09-14T04:37:36.806Z,3.90
2023-09-14T04:40:10.322Z,3.37
2023-09-14T04:42:38.327Z,3.58
2023-09-14T04:45:07.303Z,4.13
2023-09-14T04:47:35.251Z,3.65
2023-09-14T04:50:05.345Z,6.00
2023-09-14T04:52:33.271Z,5.40
2023-09-14T04:55:01.153Z,6.40
2023-09-14T04:57:29.451Z,8.10
2023-09-14T04:59:57.428Z,10.95
2023-09-14T05:02:25.343Z,6.75
2023-09-14T05:04:54.142Z,9.88
2023-09-14T05:07:24.188Z,11.18
2023-09-14T05:09:52.123Z,10.95
2023-09-14T05:12:20.433Z,12.00
2023-09-14T05:14:48.242Z,10.80
2023-09-14T05:17:16.169Z,12.63
2023-09-14T05:19:44.436Z,11.23
2023-09-14T05:22:12.408Z,10.32
2023-09-14T05:24:43.947Z,13.23
2023-09-14T05:27:12.477Z,12.27
2023-09-14T05:29:40.477Z,9.60
2023-09-14T05:32:08.405Z,9.40
2023-09-14T05:34:38.208Z,10.75
2023-09-14T05:37:06.175Z,13.27
2023-09-14T05:39:34.100Z,10.90
2023-09-14T05:42:03.879Z,10.65
2023-09-14T05:44:32.068Z,9.95
2023-09-14T05:47:00.294Z,9.27
2023-09-14T05:49:28.259Z,10.77
2023-09-14T05:51:56.254Z,9.82
2023-09-14T05:54:24.167Z,11.63
2023-09-14T05:56:52.031Z,12.10
2023-09-14T05:59:32.355Z,10.38
2023-09-14T06:02:01.741Z,10.50
2023-09-14T06:04:29.820Z,9.67
2023-09-14T06:06:57.783Z,8.50
2023-09-14T06:09:27.520Z,7.90
2023-09-14T06:11:56.219Z,9.35
2023-09-14T06:14:25.544Z,8.90
2023-09-14T06:16:53.697Z,9.52
2023-09-14T06:19:21.851Z,8.27
2023-09-14T06:21:49.772Z,8.47
2023-09-14T06:24:19.036Z,7.72
2023-09-14T06:26:46.919Z,7.15
2023-09-14T06:29:17.053Z,8.00
2023-09-14T06:31:46.302Z,8.07
2023-09-14T06:34:14.377Z,7.03
2023-09-14T06:36:42.246Z,7.70
2023-09-14T06:39:10.161Z,8.23
2023-09-14T06:41:37.988Z,8.18
2023-09-14T06:44:06.557Z,8.20
2023-09-14T06:46:34.528Z,8.10
2023-09-14T06:49:03.972Z,9.48
2023-09-14T06:51:31.917Z,9.25
2023-09-14T06:53:59.822Z,8.25
2023-09-14T06:56:27.657Z,7.50
2023-09-14T06:58:55.776Z,10.07
2023-09-14T07:01:24.987Z,9.77
2023-09-14T07:03:53.285Z,7.85
2023-09-14T07:06:22.719Z,8.82
2023-09-14T07:08:50.694Z,8.88
2023-09-14T07:11:19.433Z,9.55
2023-09-14T07:16:15.647Z,10.85
2023-09-14T07:18:43.605Z,9.40
2023-09-14T07:21:11.483Z,7.90
2023-09-14T07:23:40.679Z,8.80
2023-09-14T07:26:08.793Z,8.40
2023-09-14T07:28:36.763Z,9.90
2023-09-14T07:31:06.115Z,8.25
2023-09-14T07:33:34.967Z,7.75
2023-09-14T07:36:02.842Z,8.52
2023-09-14T07:38:31.009Z,9.98
2023-09-14T07:41:00.195Z,10.68
2023-09-14T07:43:28.852Z,9.15
2023-09-14T07:45:57.330Z,9.35
2023-09-14T07:48:25.619Z,9.30
2023-09-14T07:50:54.002Z,8.43
2023-09-14T07:53:23.479Z,9.73
2023-09-14T07:55:54.589Z,7.53
2023-09-14T07:58:23.937Z,9.45
2023-09-14T08:00:51.953Z,8.23
2023-09-14T08:03:19.939Z,9.35
2023-09-14T08:05:47.869Z,9.85
2023-09-14T08:08:15.773Z,8.98
2023-09-14T08:10:43.624Z,8.55
2023-09-14T08:13:11.522Z,8.00
2023-09-14T08:15:43.541Z,8.30
2023-09-14T08:18:11.624Z,8.07
2023-09-14T08:20:40.266Z,7.80
2023-09-14T08:23:08.132Z,7.07
2023-09-14T08:25:37.040Z,7.55
2023-09-14T08:28:05.471Z,8.90
2023-09-14T08:30:33.403Z,6.60
2023-09-14T08:33:02.636Z,7.35
2023-09-14T08:35:32.651Z,6.13
2023-09-14T08:38:00.583Z,6.75
2023-09-14T08:40:29.627Z,7.22
2023-09-14T08:42:58.660Z,6.45
2023-09-14T08:45:28.304Z,6.65
2023-09-14T08:47:56.952Z,6.20
2023-09-14T08:50:27.732Z,4.63
2023-09-14T08:52:56.537Z,5.05
2023-09-14T08:55:26.202Z,6.00
2023-09-14T08:57:55.831Z,5.65
2023-09-14T09:00:27.905Z,6.72
2023-09-14T09:02:57.068Z,5.13
2023-09-14T09:05:27.156Z,6.18
2023-09-14T09:07:56.700Z,5.22
2023-09-14T09:10:27.255Z,5.82
2023-09-14T09:13:00.079Z,5.50
2023-09-14T09:15:30.865Z,4.95
2023-09-14T09:18:06.395Z,4.95
2023-09-14T09:20:36.895Z,5.22
2023-09-14T09:23:06.476Z,4.90
2023-09-14T09:25:46.397Z,4.93
2023-09-14T09:28:14.430Z,5.00
2023-09-14T09:30:42.628Z,4.50
2023-09-14T09:35:39.807Z,5.50
2023-09-14T09:38:15.799Z,5.22
2023-09-14T09:40:45.503Z,3.78
2023-09-14T09:43:17.000Z,4.32
2023-09-14T09:45:45.937Z,4.93
2023-09-14T09:48:14.805Z,4.95
2023-09-14T09:50:44.460Z,5.43
2023-09-14T09:53:15.659Z,4.68
2023-09-14T09:55:45.143Z,4.25
2023-09-14T09:58:14.501Z,4.60
2023-09-14T10:00:42.488Z,4.35
2023-09-14T10:03:10.604Z,4.63
2023-09-14T10:05:40.384Z,4.55
2023-09-14T10:08:18.250Z,4.65
2023-09-14T10:10:52.026Z,4.53
2023-09-14T10:13:21.821Z,4.45
2023-09-14T10:15:51.268Z,4.30
2023-09-14T10:18:21.080Z,4.70
2023-09-14T10:20:51.440Z,3.90
2023-09-14T10:23:23.057Z,4.28
2023-09-14T10:25:52.731Z,4.00
2023-09-14T10:28:23.235Z,4.20
2023-09-14T10:30:52.929Z,3.95
2023-09-14T10:33:21.997Z,3.30
2023-09-14T10:35:51.196Z,3.50
2023-09-14T10:38:24.249Z,3.47
2023-09-14T10:40:53.979Z,3.30
2023-09-14T10:43:22.061Z,3.53
2023-09-14T10:45:57.475Z,2.88
2023-09-14T10:48:30.484Z,2.78
2023-09-14T10:50:59.860Z,2.42
2023-09-14T10:53:30.460Z,2.40
2023-09-14T10:55:58.542Z,2.33
2023-09-14T10:58:26.507Z,3.40
2023-09-14T11:01:16.978Z,2.40
2023-09-14T11:04:12.937Z,2.80
2023-09-14T11:06:50.067Z,2.33
2023-09-14T11:09:21.772Z,2.83
2023-09-14T11:11:52.244Z,2.58
2023-09-14T11:14:26.649Z,2.70
2023-09-14T11:16:58.210Z,3.42
2023-09-14T11:19:55.870Z,3.15
2023-09-14T11:22:29.384Z,2.70
2023-09-14T11:25:00.497Z,2.45
2023-09-14T11:27:29.879Z,3.13
2023-09-14T11:30:00.498Z,3.20
2023-09-14T11:32:32.206Z,2.80
2023-09-14T11:35:04.077Z,2.83
2023-09-14T11:37:39.665Z,2.80
2023-09-14T11:40:16.299Z,2.80
2023-09-14T11:43:31.162Z,2.38
2023-09-14T11:46:11.638Z,2.67
2023-09-14T11:51:15.229Z,2.70
2023-09-14T11:53:43.301Z,3.22
2023-09-14T11:56:13.809Z,3.00
2023-09-14T11:58:42.492Z,3.08
2023-09-14T12:03:39.870Z,2.58
2023-09-14T12:06:08.883Z,3.67
2023-09-14T12:08:37.256Z,3.20
2023-09-14T12:11:05.293Z,3.17
2023-09-14T12:13:34.721Z,3.80
2023-09-14T12:16:05.553Z,2.88
2023-09-14T12:18:41.893Z,3.50
2023-09-14T12:21:11.453Z,3.53
2023-09-14T12:23:41.579Z,3.00
2023-09-14T12:26:12.241Z,3.65
2023-09-14T12:28:42.346Z,2.88
2023-09-14T12:31:12.238Z,3.08
2023-09-14T12:33:41.266Z,3.20
2023-09-14T12:36:11.565Z,2.97
2023-09-14T12:38:46.459Z,3.08
2023-09-14T12:41:16.033Z,3.00
2023-09-14T12:43:45.966Z,3.00
2023-09-14T12:46:14.368Z,2.63
2023-09-14T12:48:43.757Z,2.90
2023-09-14T12:51:18.084Z,2.95
2023-09-14T12:53:46.544Z,3.20
2023-09-14T12:56:15.750Z,2.87
2023-09-14T12:58:45.735Z,2.67
2023-09-14T13:01:13.855Z,3.40
2023-09-14T13:03:42.092Z,2.85
2023-09-14T13:06:11.074Z,2.75
2023-09-14T13:11:25.009Z,2.80
2023-09-14T13:13:54.458Z,2.30
2023-09-14T13:16:22.510Z,2.60
2023-09-14T13:18:51.181Z,2.70
2023-09-14T13:23:47.337Z,2.60
2023-09-14T13:26:15.221Z,2.55
2023-09-14T13:28:43.203Z,2.93
2023-09-14T13:31:14.346Z,2.20
2023-09-14T13:33:43.222Z,2.63
2023-09-14T13:38:39.067Z,2.47
2023-09-14T13:41:06.948Z,2.20
2023-09-14T13:43:34.917Z,2.60
2023-09-14T13:46:03.319Z,2.50
2023-09-14T13:48:32.672Z,2.72
2023-09-14T13:51:01.138Z,2.60
2023-09-14T13:53:29.525Z,2.80
2023-09-14T13:55:57.523Z,2.80
2023-09-14T13:58:25.427Z,3.20
2023-09-14T14:00:53.471Z,3.17
2023-09-14T14:03:21.702Z,2.57
2023-09-14T14:05:51.027Z,2.45
2023-09-14T14:08:18.846Z,2.97
2023-09-14T14:10:46.752Z,2.75
2023-09-14T14:13:14.647Z,2.20
2023-09-14T14:15:42.839Z,2.63
2023-09-14T14:18:10.798Z,2.38
2023-09-14T14:20:39.224Z,2.23
2023-09-14T14:23:08.516Z,2.72
2023-09-14T14:25:37.189Z,2.50
2023-09-14T14:28:06.014Z,2.85
2023-09-14T14:33:01.776Z,2.35
2023-09-14T14:35:29.853Z,3.05
2023-09-14T14:37:58.042Z,2.70
2023-09-14T14:42:58.747Z,2.85
2023-09-14T14:45:27.254Z,2.95
2023-09-14T14:47:55.337Z,2.50
2023-09-14T14:50:24.091Z,2.20
2023-09-14T14:52:51.979Z,2.40
2023-09-14T14:55:19.992Z,2.63
2023-09-14T14:57:50.064Z,2.83
2023-09-14T15:00:18.100Z,2.78
2023-09-14T15:02:47.246Z,1.98
2023-09-14T15:05:15.316Z,2.45
2023-09-14T15:07:43.243Z,2.70
2023-09-14T15:10:11.683Z,2.13
2023-09-14T15:12:39.634Z,2.53
2023-09-14T15:15:10.235Z,2.83
2023-09-14T15:17:39.381Z,3.00
2023-09-14T15:20:08.151Z,2.47
2023-09-14T15:22:36.035Z,2.83
2023-09-14T15:25:05.605Z,2.97
2023-09-14T15:27:33.594Z,3.10
2023-09-14T15:30:01.564Z,3.45
2023-09-14T15:32:30.768Z,3.53
2023-09-14T15:34:58.644Z,3.70
2023-09-14T15:37:27.076Z,3.10
2023-09-14T15:39:54.965Z,3.45
2023-09-14T15:42:22.888Z,3.42
2023-09-14T15:44:50.839Z,3.30
2023-09-14T15:47:18.728Z,3.25
2023-09-14T15:49:48.598Z,3.20
2023-09-14T15:52:19.421Z,2.88
2023-09-14T15:54:47.427Z,2.45
2023-09-14T15:57:15.316Z,4.45
2023-09-14T15:59:43.208Z,3.45
2023-09-14T16:02:11.089Z,2.72
2023-09-14T16:04:39.117Z,3.67
2023-09-14T16:07:08.364Z,3.40
2023-09-14T16:09:36.322Z,3.20
2023-09-14T16:12:04.956Z,3.33
2023-09-14T16:14:33.659Z,3.45
2023-09-14T16:17:03.164Z,3.40
2023-09-14T16:19:31.361Z,2.80
2023-09-14T16:21:59.265Z,3.27
2023-09-14T16:24:28.556Z,3.47
2023-09-14T16:26:56.441Z,3.70
2023-09-14T16:29:24.339Z,3.50
2023-09-14T16:31:52.280Z,3.60
2023-09-14T16:36:48.885Z,3.17
2023-09-14T16:39:16.816Z,3.35
2023-09-14T16:41:46.007Z,3.63
2023-09-14T16:44:14.498Z,3.53
2023-09-14T16:46:42.410Z,4.07
2023-09-14T16:49:22.323Z,3.17
2023-09-14T16:51:51.446Z,3.80
2023-09-14T16:56:48.982Z,3.35
2023-09-14T16:59:16.979Z,3.75
2023-09-14T17:01:45.190Z,3.80
2023-09-14T17:04:13.375Z,3.23
2023-09-14T17:06:41.392Z,3.77
2023-09-14T17:09:09.288Z,3.28
2023-09-14T17:11:37.271Z,3.55
2023-09-14T17:14:08.313Z,3.63
2023-09-14T17:16:37.842Z,3.63
2023-09-14T17:19:08.126Z,3.83
2023-09-14T17:21:36.480Z,3.38
2023-09-14T17:24:05.180Z,3.10
2023-09-14T17:26:33.167Z,2.90
2023-09-14T17:29:04.219Z,3.17
2023-09-14T17:31:33.789Z,3.28
2023-09-14T17:34:04.379Z,3.05
2023-09-14T17:36:32.902Z,2.92
2023-09-14T17:39:01.418Z,3.45
2023-09-14T17:41:30.767Z,2.88
2023-09-14T17:43:59.111Z,2.80
2023-09-14T17:46:29.872Z,3.45
2023-09-14T17:48:59.587Z,2.95
2023-09-14T17:51:28.206Z,3.03
2023-09-14T17:53:56.153Z,3.83
2023-09-14T17:56:24.013Z,3.67
2023-09-14T17:58:52.240Z,4.00
2023-09-14T18:01:21.163Z,3.97
2023-09-14T18:06:20.228Z,4.22
2023-09-14T18:08:49.199Z,4.82
2023-09-14T18:11:17.979Z,5.38
2023-09-14T18:13:46.675Z,3.70
2023-09-14T18:16:15.748Z,5.50
2023-09-14T18:18:43.732Z,4.80
2023-09-14T18:21:13.604Z,5.10
2023-09-14T18:23:43.622Z,4.70
2023-09-14T18:26:11.502Z,5.40
2023-09-14T18:28:39.477Z,5.25
2023-09-14T18:31:07.445Z,6.45
2023-09-14T18:33:35.850Z,3.60
2023-09-14T18:36:05.094Z,4.65
2023-09-14T18:38:33.051Z,6.03
2023-09-14T18:41:03.130Z,5.00
2023-09-14T18:43:32.868Z,5.35
2023-09-14T18:46:01.259Z,5.00
2023-09-14T18:48:29.350Z,5.30
2023-09-14T18:51:02.336Z,5.15
2023-09-14T18:53:31.833Z,5.55
2023-09-14T18:56:00.067Z,5.30
2023-09-14T18:58:56.947Z,6.15
2023-09-14T19:01:17.354Z,6.55
2023-09-14T19:03:45.487Z,5.45
2023-09-14T19:06:13.613Z,7.43
2023-09-14T19:08:41.724Z,6.07
2023-09-14T19:11:09.662Z,7.03
2023-09-14T19:13:39.013Z,6.13
2023-09-14T19:16:07.062Z,5.85
2023-09-14T19:18:35.054Z,6.40
2023-09-14T19:21:04.413Z,5.45
2023-09-14T19:23:33.360Z,5.45
2023-09-14T19:26:01.377Z,6.10
2023-09-14T19:28:29.364Z,5.95
2023-09-14T19:30:58.795Z,5.38
2023-09-14T19:33:27.814Z,6.85
2023-09-14T19:35:55.861Z,6.28
2023-09-14T19:38:23.911Z,5.97
2023-09-14T19:40:52.177Z,6.20
2023-09-14T19:43:20.138Z,6.10
2023-09-14T19:45:48.091Z,6.25
2023-09-14T19:48:19.278Z,5.70
2023-09-14T19:50:52.634Z,7.18
2023-09-14T19:53:34.267Z,6.57
2023-09-14T19:56:07.401Z,5.30
2023-09-14T19:58:37.859Z,6.22
2023-09-14T20:01:07.347Z,6.25
2023-09-14T20:03:37.147Z,6.72
2023-09-14T20:06:06.110Z,5.22
2023-09-14T20:08:33.999Z,6.32
2023-09-14T20:11:04.181Z,6.80
2023-09-14T20:13:36.429Z,5.13
2023-09-14T20:16:04.744Z,5.28
2023-09-14T20:18:34.104Z,5.70
2023-09-14T20:21:03.482Z,6.07
2023-09-14T20:23:31.350Z,5.90
2023-09-14T20:25:59.238Z,5.72
2023-09-14T20:28:27.327Z,6.10
2023-09-14T20:30:55.410Z,6.13
2023-09-14T20:33:23.578Z,5.10
2023-09-14T20:35:51.533Z,5.63
2023-09-14T20:38:20.821Z,6.18
2023-09-14T20:40:48.763Z,5.78
2023-09-14T20:43:17.034Z,5.30
2023-09-14T20:45:45.741Z,5.03
2023-09-14T20:50:43.287Z,5.85
2023-09-14T20:53:11.554Z,5.70
2023-09-14T20:55:45.206Z,5.68
2023-09-14T20:58:14.337Z,5.07
2023-09-14T21:03:12.001Z,5.25
2023-09-14T21:05:41.690Z,5.90
2023-09-14T21:08:22.494Z,5.88
2023-09-14T21:10:51.776Z,5.50
2023-09-14T21:16:46.096Z,5.75
2023-09-14T21:19:14.060Z,5.60
2023-09-14T21:21:41.975Z,6.47
2023-09-14T21:24:10.116Z,5.05
2023-09-14T21:26:39.405Z,5.45
2023-09-14T21:29:08.056Z,6.10
2023-09-14T21:31:35.920Z,5.63
2023-09-14T21:34:03.854Z,5.78
2023-09-14T21:36:32.031Z,4.57
2023-09-14T21:39:00.017Z,5.15
2023-09-14T21:41:28.009Z,5.47
2023-09-14T21:43:57.239Z,5.90
2023-09-14T21:48:53.858Z,5.40
2023-09-14T21:51:21.822Z,6.33
2023-09-14T21:53:49.698Z,4.78
2023-09-14T21:56:17.532Z,5.28
2023-09-14T21:58:45.723Z,4.72
2023-09-14T22:01:15.332Z,5.10
2023-09-14T22:03:51.086Z,5.20
2023-09-14T22:06:24.867Z,5.20
2023-09-14T22:08:53.766Z,4.55
2023-09-14T22:11:21.952Z,5.00
2023-09-14T22:13:50.120Z,5.72
2023-09-14T22:16:19.549Z,4.70
2023-09-14T22:18:48.348Z,4.95
2023-09-14T22:21:17.980Z,4.28
2023-09-14T22:23:45.875Z,5.20
2023-09-14T22:26:13.747Z,4.90
2023-09-14T22:28:41.594Z,5.45
2023-09-14T22:31:13.036Z,4.78
2023-09-14T22:33:44.069Z,5.30
2023-09-14T22:36:12.582Z,4.68
2023-09-14T22:38:41.108Z,4.60
2023-09-14T22:41:09.040Z,4.70
2023-09-14T22:43:36.859Z,4.97
2023-09-14T22:46:05.074Z,4.80
2023-09-14T22:48:33.039Z,4.90
2023-09-14T22:51:11.955Z,4.97
2023-09-14T22:53:39.890Z,5.13
2023-09-14T22:56:16.232Z,4.40
2023-09-14T22:58:45.559Z,4.68
2023-09-14T23:01:14.107Z,3.92
2023-09-14T23:03:43.633Z,4.10
2023-09-14T23:06:13.979Z,3.90
2023-09-14T23:08:43.004Z,4.07
2023-09-14T23:11:13.863Z,3.60
2023-09-14T23:13:41.724Z,3.60
2023-09-14T23:16:10.722Z,3.75
2023-09-14T23:18:39.199Z,3.80
2023-09-14T23:21:11.170Z,3.65
2023-09-14T23:23:40.703Z,3.20
2023-09-14T23:26:11.398Z,3.13
2023-09-14T23:28:40.949Z,3.25
2023-09-14T23:31:08.908Z,3.22
2023-09-14T23:33:37.232Z,3.78
2023-09-14T23:36:09.524Z,3.83
2023-09-14T23:38:38.413Z,3.45
2023-09-14T23:41:09.154Z,3.33
2023-09-14T23:43:37.446Z,3.40
2023-09-14T23:46:05.578Z,3.40
2023-09-14T23:48:33.930Z,3.42
2023-09-14T23:51:02.150Z,3.90
2023-09-14T23:53:30.061Z,3.65
2023-09-14T23:55:57.924Z,3.22
2023-09-14T23:58:27.471Z,3.70
